Time;durP1;ratioP1;P1;durP2;ratioP2;P2;SDS_P1;SDS_P2;PMS_P1;PMS_P2;Temp;Humidity;BMP_temperature;BMP_pressure;BME280_temperature;BME280_humidity;BME280_pressure;Samples;Min_cycle;Max_cycle;Signal;HPM_P1;HPM_P2
2023/09/02 00:00:16;;;;;;;22.73;4.90;;;26.50;55.30;;;;;;5071471;28;20277;-76
2023/09/02 00:02:43;;;;;;;19.27;4.83;;;26.50;55.30;;;;;;5068709;28;20195;-76
2023/09/02 00:05:10;;;;;;;19.97;4.93;;;26.50;55.30;;;;;;5068135;28;20289;-75
2023/09/02 00:07:37;;;;;;;17.87;4.53;;;26.50;55.30;;;;;;5070221;28;20227;-78
2023/09/02 00:10:05;;;;;;;20.80;4.77;;;26.50;55.30;;;;;;5068909;28;20293;-77
2023/09/02 00:12:32;;;;;;;28.63;5.53;;;26.50;55.40;;;;;;5067073;28;20724;-77
2023/09/02 00:15:00;;;;;;;20.80;4.87;;;26.50;55.30;;;;;;5068006;28;20199;-79
2023/09/02 00:17:27;;;;;;;25.90;5.10;;;26.50;55.40;;;;;;5068381;28;20315;-76
2023/09/02 00:19:54;;;;;;;28.43;5.60;;;26.50;55.30;;;;;;5068739;28;20202;-76
2023/09/02 00:22:21;;;;;;;21.97;4.97;;;26.50;55.40;;;;;;5068391;28;20208;-76
2023/09/02 00:24:48;;;;;;;19.97;4.67;;;26.50;55.40;;;;;;5068566;28;20278;-76
2023/09/02 00:27:15;;;;;;;22.53;5.00;;;26.50;55.40;;;;;;5068419;28;20298;-75
2023/09/02 00:29:42;;;;;;;18.37;4.87;;;26.40;55.30;;;;;;5071705;28;20289;-75
2023/09/02 00:32:10;;;;;;;18.30;4.50;;;26.50;55.40;;;;;;5067499;28;20314;-75
2023/09/02 00:34:37;;;;;;;53.47;7.57;;;26.40;55.30;;;;;;5065029;28;20214;-75
2023/09/02 00:37:04;;;;;;;23.00;4.90;;;26.40;55.30;;;;;;5067282;28;20278;-75
2023/09/02 00:39:32;;;;;;;47.37;6.93;;;26.40;55.30;;;;;;5069164;28;20286;-75
2023/09/02 00:42:01;;;;;;;21.37;4.87;;;26.40;55.30;;;;;;5070055;28;20276;-75
2023/09/02 00:44:28;;;;;;;19.57;4.57;;;26.40;55.40;;;;;;5070055;28;20282;-75
2023/09/02 00:46:57;;;;;;;20.57;5.17;;;26.40;55.30;;;;;;5071773;28;20688;-75
2023/09/02 00:49:26;;;;;;;53.30;7.77;;;26.40;55.30;;;;;;5067710;28;20203;-75
2023/09/02 00:51:53;;;;;;;16.80;4.20;;;26.40;55.40;;;;;;5071343;28;20738;-75
2023/09/02 00:54:20;;;;;;;27.67;5.23;;;26.40;55.40;;;;;;5068998;28;20206;-75
2023/09/02 00:56:47;;;;;;;19.57;4.97;;;26.40;55.40;;;;;;5071114;28;20217;-75
2023/09/02 00:59:14;;;;;;;21.90;4.90;;;26.40;55.40;;;;;;5070940;28;20332;-75
2023/09/02 01:01:43;;;;;;;10.83;4.10;;;26.40;56.00;;;;;;5071559;28;20242;-75
2023/09/02 01:04:10;;;;;;;20.83;4.97;;;26.40;55.40;;;;;;5070512;28;20278;-75
2023/09/02 01:06:39;;;;;;;18.03;4.47;;;26.40;55.40;;;;;;5070862;28;20251;-76
2023/09/02 01:09:07;;;;;;;26.33;5.43;;;26.40;55.40;;;;;;5070061;28;20282;-75
2023/09/02 01:11:35;;;;;;;20.93;4.80;;;26.40;55.40;;;;;;5070219;28;20274;-75
2023/09/02 01:14:02;;;;;;;40.00;6.50;;;26.40;55.40;;;;;;5068641;28;20262;-75
2023/09/02 01:16:29;;;;;;;23.13;5.00;;;26.30;55.40;;;;;;5069839;28;20606;-75
2023/09/02 01:18:57;;;;;;;19.67;4.77;;;26.40;55.50;;;;;;5068558;28;20586;-75
2023/09/02 01:21:54;;;;;;;26.00;4.90;;;26.40;55.40;;;;;;5066986;28;20302;-75
2023/09/02 01:25:01;;;;;;;29.63;5.87;;;26.30;55.40;;;;;;5060094;28;20226;-76
2023/09/02 01:27:38;;;;;;;21.60;4.97;;;26.40;55.40;;;;;;5065661;28;20211;-75
2023/09/02 01:30:09;;;;;;;20.17;4.87;;;26.30;55.40;;;;;;5066187;28;20287;-75
2023/09/02 01:32:47;;;;;;;21.90;4.77;;;26.30;55.40;;;;;;5070117;28;20270;-75
2023/09/02 01:35:18;;;;;;;22.50;4.97;;;26.30;55.40;;;;;;5068659;28;20221;-75
2023/09/02 01:37:48;;;;;;;20.63;5.00;;;26.30;55.40;;;;;;5068298;28;20308;-75
2023/09/02 01:40:22;;;;;;;22.27;4.70;;;26.30;55.40;;;;;;5070114;28;20219;-75
2023/09/02 01:42:51;;;;;;;52.07;7.73;;;26.30;55.40;;;;;;5068216;28;20904;-75
2023/09/02 01:45:19;;;;;;;20.80;4.93;;;26.30;55.40;;;;;;5067780;28;20196;-75
2023/09/02 01:47:47;;;;;;;13.00;4.23;;;26.30;56.10;;;;;;5068423;28;20199;-76
2023/09/02 01:50:16;;;;;;;25.60;5.23;;;26.30;55.50;;;;;;5069302;28;20245;-76
2023/09/02 01:52:45;;;;;;;35.20;6.17;;;26.30;55.50;;;;;;5068308;28;20206;-75
2023/09/02 01:55:12;;;;;;;20.90;4.77;;;26.30;55.50;;;;;;5068592;28;20199;-75
2023/09/02 01:57:40;;;;;;;28.70;5.47;;;26.30;55.50;;;;;;5068916;28;20195;-76
2023/09/02 02:00:11;;;;;;;25.50;5.17;;;26.30;55.50;;;;;;5070161;28;20191;-75
2023/09/02 02:02:38;;;;;;;21.70;5.10;;;26.20;55.50;;;;;;5068743;28;20200;-75
2023/09/02 02:05:08;;;;;;;19.53;4.73;;;26.30;55.50;;;;;;5069952;28;21063;-75
2023/09/02 02:07:38;;;;;;;37.20;6.03;;;26.20;55.50;;;;;;5068995;28;20290;-76
2023/09/02 02:10:12;;;;;;;26.73;5.47;;;26.20;55.50;;;;;;5069435;28;20282;-75
2023/09/02 02:12:42;;;;;;;19.63;5.03;;;26.30;55.60;;;;;;5067537;28;20200;-76
2023/09/02 02:15:12;;;;;;;18.80;4.37;;;26.20;55.50;;;;;;5065639;28;20243;-75
2023/09/02 02:17:39;;;;;;;22.67;5.10;;;26.20;55.50;;;;;;5069019;28;20672;-76
2023/09/02 02:20:07;;;;;;;22.37;4.93;;;26.20;55.50;;;;;;5069824;28;20203;-76
2023/09/02 02:22:34;;;;;;;28.00;5.30;;;26.20;55.50;;;;;;5069294;28;20278;-75
2023/09/02 02:25:01;;;;;;;30.07;5.37;;;26.20;55.50;;;;;;5063165;28;20261;-77
2023/09/02 02:27:28;;;;;;;22.87;5.03;;;26.20;55.50;;;;;;5069710;28;20576;-76
2023/09/02 02:29:57;;;;;;;41.53;6.83;;;26.20;55.50;;;;;;5069500;28;20319;-76
2023/09/02 02:32:25;;;;;;;22.73;5.00;;;26.20;55.50;;;;;;5078136;28;20234;-76
2023/09/02 02:34:54;;;;;;;25.70;5.70;;;26.20;55.50;;;;;;5070380;28;20286;-76
2023/09/02 02:37:20;;;;;;;28.97;5.63;;;26.20;55.60;;;;;;5069943;28;20590;-75
2023/09/02 02:39:48;;;;;;;23.60;5.23;;;26.20;55.50;;;;;;5070201;28;20238;-76
2023/09/02 02:42:15;;;;;;;18.73;4.53;;;26.20;55.50;;;;;;5070180;28;20286;-76
2023/09/02 02:44:42;;;;;;;38.93;6.73;;;26.20;55.60;;;;;;5068253;28;20203;-76
2023/09/02 02:47:08;;;;;;;28.43;5.57;;;26.20;55.60;;;;;;5068971;28;20202;-76
2023/09/02 02:49:37;;;;;;;26.67;5.40;;;26.20;55.60;;;;;;5068630;28;20234;-76
2023/09/02 02:52:04;;;;;;;21.67;5.13;;;26.20;55.60;;;;;;5068560;28;20648;-76
2023/09/02 02:54:31;;;;;;;25.50;5.20;;;26.10;55.50;;;;;;5067729;28;20195;-76
2023/09/02 02:56:58;;;;;;;27.50;5.53;;;26.20;55.60;;;;;;5068367;28;20199;-76
2023/09/02 02:59:25;;;;;;;22.67;5.13;;;26.20;55.60;;;;;;5065653;28;20230;-77
2023/09/02 03:01:52;;;;;;;25.80;5.50;;;26.20;55.60;;;;;;5068797;28;20203;-78
2023/09/02 03:04:19;;;;;;;23.07;5.33;;;26.20;55.60;;;;;;5069243;28;20199;-77
2023/09/02 03:06:47;;;;;;;23.07;5.30;;;26.10;55.50;;;;;;5068167;28;20302;-77
2023/09/02 03:09:15;;;;;;;20.03;4.73;;;26.10;55.50;;;;;;5069068;28;20257;-75
2023/09/02 03:11:42;;;;;;;69.30;9.30;;;26.20;55.70;;;;;;5065329;28;20555;-75
2023/09/02 03:14:09;;;;;;;33.83;6.07;;;26.20;55.70;;;;;;5066024;28;20198;-76
2023/09/02 03:16:36;;;;;;;20.20;4.83;;;26.10;55.50;;;;;;5068031;28;20211;-76
2023/09/02 03:19:03;;;;;;;23.93;5.33;;;26.10;55.60;;;;;;5061095;28;20245;-76
2023/09/02 03:21:30;;;;;;;23.17;5.23;;;26.10;55.60;;;;;;5066648;28;20282;-76
2023/09/02 03:23:58;;;;;;;28.17;5.67;;;26.10;55.60;;;;;;5067019;28;20333;-75
2023/09/02 03:26:27;;;;;;;19.53;4.50;;;26.10;55.60;;;;;;5068256;28;20291;-75
2023/09/02 03:28:53;;;;;;;39.47;6.57;;;26.10;55.60;;;;;;5064748;28;20207;-76
2023/09/02 03:31:20;;;;;;;22.40;5.33;;;26.10;55.60;;;;;;5069019;28;20223;-76
2023/09/02 03:33:47;;;;;;;27.67;5.50;;;26.10;55.60;;;;;;5067351;28;20268;-76
2023/09/02 03:36:18;;;;;;;34.37;6.03;;;26.10;55.70;;;;;;5066962;28;20231;-75
2023/09/02 03:38:45;;;;;;;23.50;5.50;;;26.10;56.20;;;;;;5067839;28;20231;-75
2023/09/02 03:41:17;;;;;;;20.80;5.10;;;26.10;55.60;;;;;;5068301;28;20274;-75
2023/09/02 03:43:44;;;;;;;24.53;5.20;;;26.10;55.70;;;;;;5066219;28;20671;-75
2023/09/02 03:46:11;;;;;;;22.33;5.17;;;26.10;55.60;;;;;;5068291;28;20203;-74
2023/09/02 03:48:38;;;;;;;57.97;8.33;;;26.10;55.70;;;;;;5065347;28;20203;-74
2023/09/02 03:51:11;;;;;;;21.60;5.07;;;26.10;55.70;;;;;;5068045;28;20218;-75
2023/09/02 03:53:38;;;;;;;36.13;6.23;;;26.00;55.60;;;;;;5066843;28;20222;-74
2023/09/02 03:56:05;;;;;;;25.30;5.53;;;26.10;55.70;;;;;;5066165;28;20375;-77
2023/09/02 03:58:34;;;;;;;18.17;4.83;;;26.10;55.70;;;;;;5067973;28;20222;-75
2023/09/02 04:01:01;;;;;;;29.97;5.80;;;26.10;55.70;;;;;;5066304;28;20210;-75
2023/09/02 04:03:29;;;;;;;18.63;4.90;;;26.00;55.60;;;;;;5063444;28;20203;-76
2023/09/02 04:05:56;;;;;;;23.73;5.37;;;26.10;55.70;;;;;;5068724;28;20290;-74
2023/09/02 04:08:25;;;;;;;22.27;4.80;;;26.10;55.70;;;;;;5072203;28;20199;-75
2023/09/02 04:10:53;;;;;;;21.20;4.93;;;26.10;55.70;;;;;;5072177;28;20203;-75
2023/09/02 04:13:24;;;;;;;19.00;4.77;;;26.00;55.70;;;;;;5056878;28;20217;-75
2023/09/02 04:15:53;;;;;;;17.53;4.60;;;26.00;55.70;;;;;;5068190;28;20214;-75
2023/09/02 04:18:20;;;;;;;21.83;5.17;;;26.10;55.80;;;;;;5068386;28;20294;-75
2023/09/02 04:20:47;;;;;;;20.37;4.87;;;26.00;55.80;;;;;;5068394;28;20673;-75
2023/09/02 04:23:14;;;;;;;24.37;5.47;;;26.10;55.80;;;;;;5066390;28;20274;-75
2023/09/02 04:25:46;;;;;;;22.17;5.43;;;26.10;55.80;;;;;;5067956;28;20298;-75
2023/09/02 04:28:13;;;;;;;17.73;4.63;;;26.00;55.80;;;;;;5075251;28;20194;-74
2023/09/02 04:30:40;;;;;;;18.13;4.70;;;26.00;56.40;;;;;;5087297;28;20325;-74
2023/09/02 04:33:08;;;;;;;34.63;6.73;;;26.00;55.80;;;;;;5072210;28;20310;-76
2023/09/02 04:35:39;;;;;;;21.17;5.00;;;26.00;55.80;;;;;;5069606;28;20203;-75
2023/09/02 04:38:06;;;;;;;16.83;4.53;;;26.00;55.80;;;;;;5068473;28;20372;-75
2023/09/02 04:40:36;;;;;;;22.90;5.13;;;26.00;55.80;;;;;;5067797;28;20761;-75
2023/09/02 04:43:04;;;;;;;34.63;6.33;;;26.00;55.80;;;;;;5065980;28;20286;-75
2023/09/02 04:45:32;;;;;;;30.97;5.77;;;26.00;55.80;;;;;;5067322;28;20286;-77
2023/09/02 04:47:59;;;;;;;21.47;5.07;;;26.00;55.80;;;;;;5072691;28;20234;-77
2023/09/02 04:50:27;;;;;;;14.17;4.20;;;26.00;55.80;;;;;;5065964;28;20203;-77
2023/09/02 04:52:56;;;;;;;47.77;7.27;;;26.00;55.80;;;;;;5066868;28;20294;-78
2023/09/02 04:55:24;;;;;;;22.97;4.97;;;26.00;56.40;;;;;;5066433;28;20282;-78
2023/09/02 04:57:51;;;;;;;45.87;7.47;;;26.00;55.80;;;;;;5064823;28;20211;-78
2023/09/02 05:00:19;;;;;;;25.83;5.20;;;26.00;56.10;;;;;;5065310;28;20767;-80
2023/09/02 05:02:47;;;;;;;41.93;6.87;;;26.00;55.80;;;;;;5065376;28;20204;-79
2023/09/02 05:05:14;;;;;;;56.97;8.37;;;26.00;55.80;;;;;;5064893;28;20200;-80
2023/09/02 05:07:43;;;;;;;16.50;4.43;;;26.00;55.80;;;;;;5061645;28;20203;-80
2023/09/02 05:10:10;;;;;;;20.27;5.00;;;26.00;55.80;;;;;;5065035;28;20747;-80
2023/09/02 05:12:37;;;;;;;55.20;7.80;;;26.00;55.80;;;;;;5064620;28;20695;-70
2023/09/02 05:15:05;;;;;;;69.07;9.07;;;26.00;55.80;;;;;;5064179;28;20741;-78
2023/09/02 05:17:32;;;;;;;26.10;5.67;;;26.00;55.80;;;;;;5066093;28;20310;-78
2023/09/02 05:19:59;;;;;;;21.07;5.33;;;26.00;55.80;;;;;;5063800;28;20836;-77
2023/09/02 05:22:26;;;;;;;25.07;5.80;;;26.00;55.80;;;;;;5067924;28;20513;-77
2023/09/02 05:24:55;;;;;;;43.57;6.93;;;26.00;55.80;;;;;;5069658;28;20282;-77
2023/09/02 05:27:22;;;;;;;23.03;5.37;;;26.00;55.80;;;;;;5070740;28;20201;-77
2023/09/02 05:29:49;;;;;;;25.83;5.90;;;26.00;55.80;;;;;;5068770;28;20224;-78
2023/09/02 05:32:17;;;;;;;22.07;5.33;;;26.00;55.80;;;;;;5071253;28;20282;-77
2023/09/02 05:34:44;;;;;;;28.77;6.23;;;26.00;55.80;;;;;;5070691;28;20309;-74
2023/09/02 05:37:11;;;;;;;30.43;6.87;;;26.00;56.00;;;;;;5071864;28;20210;-75
2023/09/02 05:39:38;;;;;;;33.97;8.23;;;26.00;56.00;;;;;;5069546;28;20239;-78
2023/09/02 05:42:07;;;;;;;64.23;11.77;;;26.00;56.10;;;;;;5067914;28;20286;-75
2023/09/02 05:44:35;;;;;;;37.87;9.47;;;26.00;56.10;;;;;;5070500;28;20945;-73
2023/09/02 05:47:02;;;;;;;49.23;10.23;;;26.00;56.10;;;;;;5071879;28;20648;-76
2023/09/02 05:49:29;;;;;;;50.30;10.80;;;26.00;56.10;;;;;;5070902;28;20238;-74
2023/09/02 05:51:56;;;;;;;35.93;9.30;;;26.00;56.20;;;;;;5069718;28;20219;-74
2023/09/02 05:54:23;;;;;;;37.40;8.63;;;26.00;56.30;;;;;;5067743;28;20195;-74
2023/09/02 05:56:50;;;;;;;34.77;7.80;;;26.00;56.30;;;;;;5070057;28;20207;-74
2023/09/02 05:59:19;;;;;;;63.90;9.90;;;26.00;56.30;;;;;;5068418;28;20334;-74
2023/09/02 06:01:46;;;;;;;40.50;7.67;;;26.00;56.30;;;;;;5066972;28;20680;-74
2023/09/02 06:04:13;;;;;;;30.87;6.67;;;26.00;56.30;;;;;;5071055;28;20547;-74
2023/09/02 06:06:40;;;;;;;25.77;6.13;;;26.00;56.20;;;;;;5071049;28;20250;-75
2023/09/02 06:09:09;;;;;;;19.87;5.40;;;26.00;56.80;;;;;;5070863;28;20290;-74
2023/09/02 06:11:36;;;;;;;24.67;6.07;;;26.10;56.20;;;;;;5089518;28;20210;-74
2023/09/02 06:14:03;;;;;;;26.23;6.27;;;26.00;56.20;;;;;;5091148;28;20194;-74
2023/09/02 06:16:31;;;;;;;19.57;5.67;;;26.00;56.20;;;;;;5090900;28;20210;-75
2023/09/02 06:18:58;;;;;;;28.20;6.00;;;26.10;56.30;;;;;;5090722;28;20289;-76
2023/09/02 06:21:25;;;;;;;22.80;6.20;;;26.00;56.20;;;;;;5075954;28;20242;-74
2023/09/02 06:23:52;;;;;;;26.07;6.13;;;26.00;56.20;;;;;;5070169;28;20294;-75
2023/09/02 06:26:19;;;;;;;25.90;5.90;;;26.00;56.20;;;;;;5070642;28;20854;-75
2023/09/02 06:28:46;;;;;;;29.80;6.27;;;26.00;56.30;;;;;;5090587;28;20202;-75
2023/09/02 06:31:13;;;;;;;22.37;5.47;;;26.00;56.30;;;;;;5090677;28;20222;-74
2023/09/02 06:33:42;;;;;;;23.80;5.93;;;26.00;56.30;;;;;;5090667;28;20198;-75
2023/09/02 06:36:11;;;;;;;22.73;5.80;;;26.00;56.30;;;;;;5086436;28;20290;-74
2023/09/02 06:38:38;;;;;;;43.70;7.80;;;26.00;56.30;;;;;;5068446;28;20290;-75
2023/09/02 06:41:10;;;;;;;26.77;6.07;;;26.00;56.30;;;;;;5068759;28;20216;-75
2023/09/02 06:43:37;;;;;;;42.27;7.53;;;26.00;56.30;;;;;;5068401;28;20655;-74
2023/09/02 06:46:12;;;;;;;21.90;5.87;;;26.00;56.30;;;;;;5067990;28;20561;-74
2023/09/02 06:48:41;;;;;;;22.43;5.93;;;26.00;56.40;;;;;;5069213;28;20286;-78
2023/09/02 06:51:07;;;;;;;23.47;5.93;;;25.90;56.20;;;;;;5068237;28;20286;-75
2023/09/02 06:53:35;;;;;;;26.77;6.27;;;26.00;56.30;;;;;;5066336;28;20231;-75
2023/09/02 06:56:01;;;;;;;35.13;6.87;;;25.90;56.90;;;;;;5068389;28;20203;-75
2023/09/02 06:58:28;;;;;;;28.83;6.07;;;25.90;56.20;;;;;;5069782;28;20278;-75
2023/09/02 07:00:55;;;;;;;25.17;5.83;;;26.00;56.30;;;;;;5068203;28;20345;-75
2023/09/02 07:03:22;;;;;;;26.03;5.73;;;26.00;56.40;;;;;;5067833;28;20278;-76
2023/09/02 07:05:51;;;;;;;28.30;6.20;;;25.90;56.30;;;;;;5068466;28;20208;-75
2023/09/02 07:08:18;;;;;;;25.43;5.80;;;25.90;56.30;;;;;;5069407;28;20306;-75
2023/09/02 07:10:45;;;;;;;32.93;6.47;;;25.90;56.40;;;;;;5068097;28;20287;-75
2023/09/02 07:13:11;;;;;;;33.47;6.93;;;25.90;56.40;;;;;;5067672;28;20206;-75
2023/09/02 07:15:38;;;;;;;22.30;5.50;;;25.90;56.40;;;;;;5068337;28;20286;-75
2023/09/02 07:18:05;;;;;;;24.60;6.03;;;25.90;56.40;;;;;;5068851;28;20232;-75
2023/09/02 07:20:36;;;;;;;26.30;6.07;;;25.90;56.40;;;;;;5068785;28;20266;-75
2023/09/02 07:23:05;;;;;;;33.63;6.60;;;25.90;56.50;;;;;;5067227;28;20208;-74
2023/09/02 07:25:32;;;;;;;21.70;5.27;;;26.00;57.20;;;;;;5068414;28;20200;-74
2023/09/02 07:27:59;;;;;;;30.50;6.63;;;26.00;56.60;;;;;;5068369;28;20199;-75
2023/09/02 07:30:25;;;;;;;29.60;6.33;;;26.00;56.60;;;;;;5068277;28;20396;-74
2023/09/02 07:32:53;;;;;;;24.30;6.10;;;26.00;56.60;;;;;;5066728;28;20210;-78
2023/09/02 07:35:19;;;;;;;38.63;6.80;;;26.00;56.60;;;;;;5067116;28;20803;-74
2023/09/02 07:37:46;;;;;;;27.73;6.00;;;26.00;56.70;;;;;;5068704;28;20195;-74
2023/09/02 07:40:14;;;;;;;25.07;6.13;;;26.00;56.70;;;;;;5067800;28;20228;-75
2023/09/02 07:42:41;;;;;;;24.70;5.93;;;26.00;56.70;;;;;;5067906;28;20683;-75
2023/09/02 07:45:09;;;;;;;36.27;6.57;;;26.00;56.70;;;;;;5066660;28;20203;-74
2023/09/02 07:47:36;;;;;;;48.23;7.83;;;26.00;56.70;;;;;;5064879;28;20204;-75
2023/09/02 07:50:04;;;;;;;57.80;8.60;;;26.00;56.70;;;;;;5065603;28;20720;-76
2023/09/02 07:52:31;;;;;;;25.97;5.90;;;26.00;56.70;;;;;;5068183;28;20191;-74
2023/09/02 07:54:58;;;;;;;43.23;7.27;;;26.00;56.70;;;;;;5065407;28;20286;-74
2023/09/02 07:57:27;;;;;;;27.07;5.80;;;26.00;56.70;;;;;;5068293;28;20282;-74
2023/09/02 07:59:53;;;;;;;21.30;5.27;;;26.00;56.70;;;;;;5067948;28;20296;-77
2023/09/02 08:02:20;;;;;;;24.03;5.57;;;26.00;56.70;;;;;;5065768;28;20294;-74
2023/09/02 08:04:47;;;;;;;22.93;5.63;;;26.00;56.70;;;;;;5068564;28;20200;-74
2023/09/02 08:07:14;;;;;;;23.37;5.73;;;26.00;56.70;;;;;;5068863;28;20291;-75
2023/09/02 08:09:41;;;;;;;23.67;5.77;;;26.10;56.80;;;;;;5079890;28;20290;-76
2023/09/02 08:12:11;;;;;;;40.00;7.27;;;26.00;56.70;;;;;;5088549;28;20281;-74
2023/09/02 08:14:39;;;;;;;29.30;6.07;;;26.00;56.80;;;;;;5088429;28;20203;-81
2023/09/02 08:17:06;;;;;;;30.97;6.13;;;26.10;56.90;;;;;;5088347;28;20199;-76
2023/09/02 08:19:33;;;;;;;19.83;5.03;;;26.10;56.90;;;;;;5084015;28;20279;-76
2023/09/02 08:22:00;;;;;;;23.13;5.70;;;26.00;56.80;;;;;;5068643;28;20286;-74
2023/09/02 08:24:27;;;;;;;28.20;5.93;;;26.00;56.80;;;;;;5065402;28;20290;-75
2023/09/02 08:26:54;;;;;;;26.67;6.00;;;26.10;56.90;;;;;;5075319;28;20285;-76
2023/09/02 08:29:21;;;;;;;32.60;6.27;;;26.10;56.90;;;;;;5088500;28;20305;-75
2023/09/02 08:31:57;;;;;;;29.47;6.13;;;26.10;57.50;;;;;;5087457;28;20290;-74
2023/09/02 08:34:24;;;;;;;20.93;5.17;;;26.10;56.90;;;;;;5067430;28;20294;-74
2023/09/02 08:36:51;;;;;;;29.97;6.30;;;26.10;56.90;;;;;;5066973;28;20290;-74
2023/09/02 08:39:17;;;;;;;26.37;5.60;;;26.10;56.90;;;;;;5066929;28;20286;-75
2023/09/02 08:41:46;;;;;;;47.73;7.43;;;26.10;56.90;;;;;;5066201;28;20310;-75
2023/09/02 08:44:17;;;;;;;21.30;5.30;;;26.10;56.90;;;;;;5062593;28;20200;-74
2023/09/02 08:46:46;;;;;;;30.27;6.27;;;26.10;56.90;;;;;;5067208;28;20206;-75
2023/09/02 08:49:16;;;;;;;26.67;5.80;;;26.10;57.00;;;;;;5067204;28;20397;-74
2023/09/02 08:51:44;;;;;;;23.43;5.83;;;26.10;57.00;;;;;;5067535;28;20204;-75
2023/09/02 08:54:12;;;;;;;23.47;5.63;;;26.10;56.90;;;;;;5067814;28;20278;-74
2023/09/02 08:56:41;;;;;;;22.97;5.40;;;26.10;56.90;;;;;;5067506;28;20207;-75
2023/09/02 08:59:09;;;;;;;33.53;6.47;;;26.10;57.00;;;;;;5070043;28;20203;-74
2023/09/02 09:01:42;;;;;;;49.57;7.83;;;26.10;57.00;;;;;;5070706;28;20226;-75
2023/09/02 09:04:09;;;;;;;23.33;5.57;;;26.20;57.10;;;;;;5067937;28;20192;-74
2023/09/02 09:06:38;;;;;;;23.27;5.67;;;26.20;57.10;;;;;;5070074;28;20303;-74
2023/09/02 09:09:09;;;;;;;31.07;6.10;;;26.20;57.10;;;;;;5070564;28;20282;-75
2023/09/02 09:11:38;;;;;;;27.53;5.83;;;26.10;57.10;;;;;;5070244;28;20545;-74
2023/09/02 09:14:09;;;;;;;24.20;5.43;;;26.20;57.20;;;;;;5070511;28;20203;-74
2023/09/02 09:16:40;;;;;;;26.07;5.80;;;26.20;57.20;;;;;;5072400;28;20207;-77
2023/09/02 09:19:07;;;;;;;24.43;5.70;;;26.20;57.30;;;;;;5070504;28;20294;-74
2023/09/02 09:21:34;;;;;;;27.83;5.90;;;26.20;57.20;;;;;;5069374;28;20223;-75
2023/09/02 09:24:02;;;;;;;22.87;5.47;;;26.20;57.30;;;;;;5068720;28;20204;-75
2023/09/02 09:26:31;;;;;;;30.70;6.27;;;26.20;57.30;;;;;;5070572;28;20204;-78
2023/09/02 09:28:59;;;;;;;27.37;5.83;;;26.20;57.30;;;;;;5071081;28;20258;-75
2023/09/02 09:31:27;;;;;;;45.37;7.20;;;26.20;57.30;;;;;;5070458;28;20202;-75
2023/09/02 09:33:58;;;;;;;41.00;6.83;;;26.30;57.30;;;;;;5069487;28;20286;-75
2023/09/02 09:36:26;;;;;;;24.23;5.63;;;26.30;57.30;;;;;;5070234;28;20287;-75
2023/09/02 09:38:54;;;;;;;29.60;6.07;;;26.30;57.40;;;;;;5069604;28;20245;-76
2023/09/02 09:41:24;;;;;;;26.13;5.93;;;26.30;57.40;;;;;;5069383;28;20227;-74
2023/09/02 09:44:07;;;;;;;24.40;6.00;;;26.30;57.50;;;;;;5069001;28;20706;-74
2023/09/02 09:46:36;;;;;;;26.27;6.00;;;26.30;57.50;;;;;;5069680;28;20282;-75
2023/09/02 09:49:03;;;;;;;24.67;5.77;;;26.30;57.40;;;;;;5070083;28;20290;-74
2023/09/02 09:51:30;;;;;;;21.17;5.37;;;26.30;57.40;;;;;;5069618;28;20203;-76
2023/09/02 09:53:57;;;;;;;31.80;6.27;;;26.40;57.50;;;;;;5069769;28;20235;-75
2023/09/02 09:56:26;;;;;;;41.00;7.17;;;26.40;57.60;;;;;;5069618;28;20214;-75
2023/09/02 09:58:53;;;;;;;19.10;5.23;;;26.40;57.60;;;;;;5069718;28;20310;-75
2023/09/02 10:01:24;;;;;;;22.30;5.30;;;26.40;57.60;;;;;;5069402;28;20237;-74
2023/09/02 10:03:51;;;;;;;31.57;6.40;;;26.40;57.60;;;;;;5069281;28;20207;-75
2023/09/02 10:06:20;;;;;;;29.00;6.13;;;26.40;58.10;;;;;;5070428;28;20261;-74
2023/09/02 10:08:51;;;;;;;25.83;5.83;;;26.40;57.60;;;;;;5071268;28;20211;-75
2023/09/02 10:11:22;;;;;;;28.17;6.30;;;26.50;57.60;;;;;;5070235;28;20275;-76
2023/09/02 10:13:54;;;;;;;32.17;6.33;;;26.50;57.60;;;;;;5070027;28;20227;-80
2023/09/02 10:16:22;;;;;;;35.90;7.03;;;26.50;57.60;;;;;;5069779;28;20723;-81
2023/09/02 10:18:49;;;;;;;28.50;6.13;;;26.60;57.70;;;;;;5069228;28;20208;-75
2023/09/02 10:21:17;;;;;;;29.87;6.10;;;26.50;57.60;;;;;;5069368;28;20254;-76
2023/09/02 10:23:49;;;;;;;54.03;8.53;;;26.60;57.70;;;;;;5069421;28;20287;-75
2023/09/02 10:26:23;;;;;;;36.33;6.87;;;26.60;57.70;;;;;;5069534;28;20203;-75
2023/09/02 10:28:50;;;;;;;29.43;6.27;;;26.60;57.70;;;;;;5068155;28;20295;-76
2023/09/02 10:31:23;;;;;;;26.27;5.90;;;26.60;57.70;;;;;;5069232;28;20678;-75
2023/09/02 10:34:03;;;;;;;24.33;5.57;;;26.70;57.80;;;;;;5068780;28;20239;-75
2023/09/02 10:36:34;;;;;;;25.80;6.07;;;26.70;57.80;;;;;;5069372;28;20206;-75
2023/09/02 10:39:03;;;;;;;33.77;7.43;;;26.80;57.80;;;;;;5067347;28;20306;-74
2023/09/02 10:41:31;;;;;;;31.83;6.47;;;26.80;57.80;;;;;;5068927;28;20237;-76
2023/09/02 10:44:00;;;;;;;72.10;10.57;;;26.80;57.80;;;;;;5067425;28;20547;-75
2023/09/02 10:46:30;;;;;;;48.00;7.93;;;26.90;57.90;;;;;;5067513;28;20203;-78
2023/09/02 10:48:57;;;;;;;32.20;7.17;;;26.90;57.90;;;;;;5068804;28;20282;-76
2023/09/02 10:51:24;;;;;;;26.97;6.37;;;27.00;57.80;;;;;;5068957;28;20205;-76
2023/09/02 10:54:01;;;;;;;23.77;5.60;;;27.00;57.70;;;;;;5069603;28;20286;-77
2023/09/02 10:56:31;;;;;;;31.23;6.73;;;27.00;57.70;;;;;;5064836;28;20551;-76
2023/09/02 10:58:59;;;;;;;34.20;6.67;;;27.10;57.60;;;;;;5068626;28;20200;-76
2023/09/02 11:01:28;;;;;;;21.83;5.83;;;27.10;57.60;;;;;;5069248;28;20318;-80
2023/09/02 11:03:57;;;;;;;42.47;7.80;;;27.10;57.50;;;;;;5068233;28;20290;-77
2023/09/02 11:06:24;;;;;;;27.50;6.13;;;27.10;57.40;;;;;;5068086;28;20261;-75
2023/09/02 11:08:52;;;;;;;38.10;7.27;;;27.10;57.40;;;;;;5067598;28;20207;-76
2023/09/02 11:11:20;;;;;;;22.47;5.77;;;27.10;57.40;;;;;;5068540;28;20195;-74
2023/09/02 11:14:19;;;;;;;34.90;6.97;;;27.10;57.40;;;;;;5067989;28;20206;-77
2023/09/02 11:17:06;;;;;;;24.43;5.83;;;27.10;57.40;;;;;;5065451;28;20249;-76
2023/09/02 11:20:01;;;;;;;18.10;5.00;;;27.10;57.30;;;;;;5067425;28;20755;-74
2023/09/02 11:22:51;;;;;;;29.60;6.40;;;27.10;57.40;;;;;;5068065;28;20230;-74
2023/09/02 11:25:34;;;;;;;26.33;6.17;;;27.10;57.40;;;;;;5062964;28;20291;-77
2023/09/02 11:28:03;;;;;;;28.57;6.00;;;27.10;57.40;;;;;;5058729;28;20274;-77
2023/09/02 11:30:31;;;;;;;21.93;5.47;;;27.10;57.30;;;;;;5067956;28;20226;-76
2023/09/02 11:32:59;;;;;;;42.17;7.43;;;27.10;57.30;;;;;;5064880;28;20200;-76
2023/09/02 11:35:29;;;;;;;38.97;7.00;;;27.10;57.30;;;;;;5061306;28;20298;-77
2023/09/02 11:37:57;;;;;;;24.73;5.83;;;27.10;57.40;;;;;;5066800;28;20287;-77
2023/09/02 11:40:25;;;;;;;29.20;6.17;;;27.00;57.30;;;;;;5068546;28;20283;-77
2023/09/02 11:42:53;;;;;;;27.07;6.60;;;27.10;57.40;;;;;;5066791;28;20242;-76
2023/09/02 11:45:21;;;;;;;36.83;7.20;;;27.00;58.00;;;;;;5066680;28;20231;-76
2023/09/02 11:47:49;;;;;;;22.87;5.73;;;27.00;57.30;;;;;;5067556;28;20290;-77
2023/09/02 11:50:18;;;;;;;25.50;6.40;;;27.00;57.30;;;;;;5067501;28;20673;-77
2023/09/02 11:52:47;;;;;;;31.80;6.77;;;27.00;57.30;;;;;;5052046;28;20203;-76
2023/09/02 11:55:15;;;;;;;23.50;6.00;;;27.00;57.30;;;;;;5067769;28;20283;-77
2023/09/02 11:57:43;;;;;;;33.80;7.20;;;27.00;57.40;;;;;;5066983;28;22171;-77
2023/09/02 12:00:16;;;;;;;29.83;6.27;;;27.00;57.40;;;;;;5067996;28;20200;-76
2023/09/02 12:02:43;;;;;;;28.93;6.40;;;27.00;57.50;;;;;;5067562;28;20777;-76
2023/09/02 12:05:10;;;;;;;24.33;5.77;;;27.00;57.50;;;;;;5068318;28;20278;-76
2023/09/02 12:07:38;;;;;;;30.67;6.07;;;27.00;57.50;;;;;;5079120;28;20754;-76
2023/09/02 12:10:08;;;;;;;35.33;6.93;;;27.00;57.60;;;;;;5059962;28;20203;-74
2023/09/02 12:12:35;;;;;;;28.23;6.20;;;27.00;57.60;;;;;;5070582;28;20278;-76
2023/09/02 12:15:04;;;;;;;30.67;6.23;;;27.00;57.60;;;;;;5066824;28;20286;-76
2023/09/02 12:17:31;;;;;;;20.37;5.40;;;27.00;57.60;;;;;;5068289;28;20699;-85
2023/09/02 12:19:59;;;;;;;28.30;6.03;;;27.00;57.60;;;;;;5066709;28;20210;-76
2023/09/02 12:22:26;;;;;;;27.23;6.13;;;27.00;57.60;;;;;;5068131;28;20230;-78
2023/09/02 12:24:53;;;;;;;25.90;6.20;;;27.00;57.70;;;;;;5081187;28;20206;-84
2023/09/02 12:27:22;;;;;;;24.83;6.00;;;27.10;57.80;;;;;;5077152;28;21019;-80
2023/09/02 12:29:57;;;;;;;22.13;5.60;;;27.10;57.80;;;;;;5057992;28;21240;-82
2023/09/02 12:32:24;;;;;;;28.50;6.33;;;27.10;58.00;;;;;;5068648;28;20198;-76
2023/09/02 12:34:51;;;;;;;31.60;6.60;;;27.10;58.00;;;;;;5072184;28;20735;-76
2023/09/02 12:37:20;;;;;;;28.67;6.27;;;27.20;58.00;;;;;;5070229;28;20291;-74
2023/09/02 12:39:47;;;;;;;35.60;7.20;;;27.20;58.00;;;;;;5069668;28;20207;-76
2023/09/02 12:42:16;;;;;;;19.30;5.67;;;27.20;58.10;;;;;;5087629;28;20234;-82